createdAt,value
2022-08-01T00:02:08.118Z,7.93
2022-08-01T00:06:54.283Z,8.05
2022-08-01T00:11:43.279Z,7.78
2022-08-01T00:16:29.195Z,7.57
2022-08-01T00:21:17.906Z,7.80
2022-08-01T00:26:03.819Z,7.78
2022-08-01T00:30:52.517Z,7.40
2022-08-01T00:35:40.020Z,7.07
2022-08-01T00:40:26.343Z,6.80
2022-08-01T00:45:13.738Z,6.97
2022-08-01T00:50:02.411Z,7.55
2022-08-01T00:54:48.468Z,6.95
2022-08-01T00:59:34.892Z,6.80
2022-08-01T01:04:21.213Z,6.28
2022-08-01T01:09:19.724Z,7.03
2022-08-01T01:14:12.847Z,6.97
2022-08-01T01:19:02.198Z,6.03
2022-08-01T01:24:08.178Z,7.00
2022-08-01T01:29:06.329Z,6.85
2022-08-01T01:33:54.083Z,6.53
2022-08-01T01:38:45.969Z,7.38
2022-08-01T01:43:33.911Z,6.38
2022-08-01T01:48:25.082Z,6.13
2022-08-01T01:53:14.903Z,6.15
2022-08-01T01:58:04.007Z,6.50
2022-08-01T02:02:51.487Z,6.68
2022-08-01T02:07:41.340Z,6.88
2022-08-01T02:12:28.618Z,6.40
2022-08-01T02:17:19.369Z,5.95
2022-08-01T02:22:08.978Z,6.28
2022-08-01T02:27:01.377Z,5.70
2022-08-01T02:31:49.354Z,6.05
2022-08-01T02:36:38.699Z,5.90
2022-08-01T02:41:26.446Z,6.13
2022-08-01T02:46:20.509Z,5.88
2022-08-01T02:51:07.456Z,6.03
2022-08-01T02:55:54.282Z,6.07
2022-08-01T03:00:40.092Z,5.93
2022-08-01T03:05:30.131Z,6.13
2022-08-01T03:10:17.375Z,5.18
2022-08-01T03:15:04.913Z,5.63
2022-08-01T03:19:50.628Z,5.85
2022-08-01T03:24:42.181Z,6.03
2022-08-01T03:29:31.329Z,5.82
2022-08-01T03:34:16.988Z,6.18
2022-08-01T03:39:06.495Z,5.82
2022-08-01T03:43:59.670Z,6.35
2022-08-01T03:48:51.165Z,6.50
2022-08-01T03:53:37.469Z,6.30
2022-08-01T03:58:26.432Z,6.60
2022-08-01T04:03:16.149Z,7.80
2022-08-01T04:08:03.324Z,7.22
2022-08-01T04:12:48.704Z,7.30
2022-08-01T04:17:33.740Z,7.75
2022-08-01T04:22:22.238Z,7.75
2022-08-01T04:27:11.544Z,8.15
2022-08-01T04:32:01.075Z,8.02
2022-08-01T04:36:48.148Z,9.90
2022-08-01T04:41:37.722Z,10.18
2022-08-01T04:46:23.479Z,10.45
2022-08-01T04:51:16.467Z,9.63
2022-08-01T04:56:01.872Z,8.63
2022-08-01T05:00:50.359Z,7.97
2022-08-01T05:05:35.662Z,7.82
2022-08-01T05:10:21.193Z,8.13
2022-08-01T05:15:10.597Z,8.60
2022-08-01T05:20:03.042Z,9.38
2022-08-01T05:24:49.185Z,11.60
2022-08-01T05:29:35.362Z,11.07
2022-08-01T05:34:20.693Z,11.15
2022-08-01T05:39:08.918Z,12.77
2022-08-01T05:43:53.989Z,15.15
2022-08-01T05:48:39.404Z,12.18
2022-08-01T05:53:24.620Z,13.70
2022-08-01T05:58:12.787Z,13.10
2022-08-01T06:02:57.984Z,11.50
2022-08-01T06:07:43.517Z,12.52
2022-08-01T06:12:32.388Z,13.52
2022-08-01T06:17:23.190Z,11.60
2022-08-01T06:22:08.496Z,11.00
2022-08-01T06:26:54.057Z,10.02
2022-08-01T06:31:39.397Z,8.00
2022-08-01T06:36:27.401Z,7.40
2022-08-01T06:41:15.493Z,6.82
2022-08-01T06:46:00.956Z,7.30
2022-08-01T06:50:46.056Z,5.63
2022-08-01T06:55:34.249Z,6.70
2022-08-01T07:00:23.539Z,6.50
2022-08-01T07:05:12.548Z,6.03
2022-08-01T07:09:57.601Z,5.95
2022-08-01T07:14:45.601Z,5.57
2022-08-01T07:19:30.743Z,5.20
2022-08-01T07:24:19.603Z,4.90
2022-08-01T07:29:06.644Z,4.60
2022-08-01T07:33:54.933Z,4.60
2022-08-01T07:38:39.982Z,5.00
2022-08-01T07:43:25.353Z,4.40
2022-08-01T07:48:11.173Z,4.25
2022-08-01T07:52:59.097Z,4.65
2022-08-01T07:57:44.585Z,4.07
2022-08-01T08:02:30.047Z,4.13
2022-08-01T08:07:15.113Z,4.25
2022-08-01T08:12:03.372Z,4.10
2022-08-01T08:16:49.270Z,4.22
2022-08-01T08:21:34.634Z,4.18
2022-08-01T08:26:19.749Z,3.92
2022-08-01T08:31:07.799Z,4.38
2022-08-01T08:36:12.607Z,4.43
2022-08-01T08:40:59.865Z,4.50
2022-08-01T08:45:58.201Z,4.10
2022-08-01T08:50:51.188Z,4.40
2022-08-01T08:55:56.379Z,4.10
2022-08-01T09:00:43.073Z,3.95
2022-08-01T09:05:38.879Z,3.93
2022-08-01T09:10:27.776Z,3.72
2022-08-01T09:15:13.653Z,3.83
2022-08-01T09:19:59.847Z,4.05
2022-08-01T09:24:46.183Z,3.80
2022-08-01T09:29:37.868Z,4.20
2022-08-01T09:34:30.901Z,3.50
2022-08-01T09:39:18.957Z,4.07
2022-08-01T09:44:04.084Z,4.10
2022-08-01T09:49:07.463Z,3.80
2022-08-01T09:53:56.537Z,4.00
2022-08-01T09:59:01.119Z,3.95
2022-08-01T10:03:48.003Z,3.58
2022-08-01T10:08:50.285Z,3.90
2022-08-01T10:13:36.996Z,3.63
2022-08-01T10:18:26.494Z,3.85
2022-08-01T10:23:12.844Z,3.90
2022-08-01T10:28:05.970Z,3.65
2022-08-01T10:32:53.472Z,4.38
2022-08-01T10:37:51.807Z,4.50
2022-08-01T10:42:39.859Z,4.25
2022-08-01T10:47:50.890Z,4.20
2022-08-01T10:52:39.641Z,4.40
2022-08-01T10:57:27.548Z,4.30
2022-08-01T11:02:13.812Z,3.92
2022-08-01T11:07:10.177Z,4.32
2022-08-01T11:12:06.224Z,4.05
2022-08-01T11:16:51.688Z,3.97
2022-08-01T11:22:13.511Z,3.45
2022-08-01T11:27:23.844Z,3.30
2022-08-01T11:32:33.020Z,3.40
2022-08-01T11:37:30.604Z,3.20
2022-08-01T11:42:25.038Z,3.22
2022-08-01T11:47:13.943Z,3.50
2022-08-01T11:52:08.679Z,3.05
2022-08-01T11:56:54.260Z,3.05
2022-08-01T12:01:45.136Z,3.00
2022-08-01T12:06:32.114Z,2.80
2022-08-01T12:11:17.519Z,2.70
2022-08-01T12:16:11.044Z,3.13
2022-08-01T12:21:07.040Z,3.17
2022-08-01T12:25:55.995Z,3.63
2022-08-01T12:30:41.720Z,3.92
2022-08-01T12:35:29.468Z,2.92
2022-08-01T12:40:19.463Z,3.08
2022-08-01T12:45:05.100Z,3.50
2022-08-01T12:49:51.928Z,3.55
2022-08-01T12:55:09.919Z,3.13
2022-08-01T13:00:10.243Z,3.30
2022-08-01T13:04:57.440Z,3.40
2022-08-01T13:09:53.549Z,3.25
2022-08-01T13:14:41.753Z,3.42
2022-08-01T13:19:58.786Z,3.40
2022-08-01T13:24:44.505Z,3.42
2022-08-01T13:29:39.137Z,3.20
2022-08-01T13:34:33.889Z,3.53
2022-08-01T13:39:33.718Z,3.25
2022-08-01T13:44:19.212Z,3.40
2022-08-01T13:49:15.188Z,3.03
2022-08-01T13:54:01.822Z,2.53
2022-08-01T13:58:49.793Z,2.08
2022-08-01T14:03:35.276Z,2.58
2022-08-01T14:08:20.354Z,2.30
2022-08-01T14:13:06.219Z,2.90
2022-08-01T14:17:58.023Z,2.90
2022-08-01T14:22:44.098Z,2.90
2022-08-01T14:27:31.944Z,3.17
2022-08-01T14:32:17.396Z,2.53
2022-08-01T14:37:05.398Z,2.90
2022-08-01T14:41:50.844Z,2.80
2022-08-01T14:46:36.076Z,2.88
2022-08-01T14:51:21.950Z,3.40
2022-08-01T14:56:10.899Z,2.63
2022-08-01T15:00:58.827Z,3.30
2022-08-01T15:05:44.177Z,3.30
2022-08-01T15:10:29.645Z,2.83
2022-08-01T15:15:17.478Z,2.80
2022-08-01T15:20:08.883Z,3.42
2022-08-01T15:24:57.454Z,3.20
2022-08-01T15:29:43.274Z,4.07
2022-08-01T15:34:31.129Z,4.20
2022-08-01T15:39:17.451Z,4.53
2022-08-01T15:44:02.528Z,5.03
2022-08-01T15:48:47.983Z,4.63
2022-08-01T15:53:35.692Z,4.80
2022-08-01T15:58:21.184Z,4.78
2022-08-01T16:03:06.858Z,4.68
2022-08-01T16:08:01.990Z,5.10
2022-08-01T16:12:49.865Z,4.63
2022-08-01T16:17:37.347Z,4.75
2022-08-01T16:22:25.738Z,4.50
2022-08-01T16:27:11.144Z,5.10
2022-08-01T16:32:02.489Z,5.03
2022-08-01T16:36:55.631Z,5.30
2022-08-01T16:41:43.800Z,5.10
2022-08-01T16:46:29.887Z,4.90
2022-08-01T16:51:25.840Z,5.35
2022-08-01T16:56:12.026Z,5.20
2022-08-01T17:00:58.293Z,4.97
2022-08-01T17:06:07.021Z,5.03
2022-08-01T17:10:55.415Z,4.70
2022-08-01T17:15:41.552Z,4.43
2022-08-01T17:20:27.946Z,4.35
2022-08-01T17:25:15.720Z,4.53
2022-08-01T17:30:04.647Z,6.68
2022-08-01T17:34:53.555Z,4.90
2022-08-01T17:39:40.141Z,5.30
2022-08-01T17:44:26.076Z,7.05
2022-08-01T17:49:13.865Z,5.22
2022-08-01T17:54:00.108Z,6.18
2022-08-01T17:58:50.970Z,5.15
2022-08-01T18:03:40.830Z,4.93
2022-08-01T18:08:30.225Z,6.25
2022-08-01T18:13:17.626Z,6.03
2022-08-01T18:18:05.686Z,5.38
2022-08-01T18:22:51.259Z,12.20
2022-08-01T18:28:22.736Z,8.55
2022-08-01T18:32:45.287Z,5.72
2022-08-01T18:37:35.183Z,4.95
2022-08-01T18:42:26.266Z,4.43
2022-08-01T18:47:14.982Z,5.20
2022-08-01T18:52:01.474Z,4.32
2022-08-01T18:56:47.517Z,4.97
2022-08-01T19:01:33.094Z,4.68
2022-08-01T19:06:20.904Z,4.68
2022-08-01T19:11:06.320Z,3.78
2022-08-01T19:15:51.351Z,4.28
2022-08-01T19:20:38.927Z,4.28
2022-08-01T19:25:26.999Z,4.72
2022-08-01T19:30:14.238Z,4.10
2022-08-01T19:35:06.218Z,4.20
2022-08-01T19:39:51.694Z,4.35
2022-08-01T19:44:40.593Z,3.78
2022-08-01T19:49:27.045Z,4.95
2022-08-01T19:54:15.165Z,4.13
2022-08-01T19:59:01.872Z,4.15
2022-08-01T20:03:51.305Z,4.88
2022-08-01T20:08:38.064Z,4.20
2022-08-01T20:13:24.179Z,4.20
2022-08-01T20:18:10.310Z,4.43
2022-08-01T20:23:00.337Z,4.57
2022-08-01T20:27:49.390Z,5.30
2022-08-01T20:32:36.499Z,4.85
2022-08-01T20:38:04.184Z,4.72
2022-08-01T20:42:31.651Z,5.47
2022-08-01T20:47:17.891Z,5.20
2022-08-01T20:52:12.014Z,5.70
2022-08-01T20:57:03.936Z,5.50
2022-08-01T21:06:41.241Z,5.75
2022-08-01T21:11:31.238Z,6.13
2022-08-01T21:16:23.928Z,6.05
2022-08-01T21:21:19.335Z,5.93
2022-08-01T21:26:04.719Z,7.13
2022-08-01T21:30:53.735Z,6.72
2022-08-01T21:35:42.857Z,6.13
2022-08-01T21:40:30.845Z,6.75
2022-08-01T21:45:17.271Z,7.18
2022-08-01T21:50:06.492Z,7.20
2022-08-01T21:55:04.403Z,7.00
2022-08-01T21:59:58.750Z,7.70
2022-08-01T22:04:45.809Z,8.30
2022-08-01T22:09:32.898Z,7.28
2022-08-01T22:14:19.278Z,7.60
2022-08-01T22:19:09.862Z,7.60
2022-08-01T22:24:15.883Z,7.85
2022-08-01T22:29:02.623Z,8.68
2022-08-01T22:33:50.747Z,9.25
2022-08-01T22:38:39.241Z,8.98
2022-08-01T22:43:32.966Z,8.50
2022-08-01T22:48:23.412Z,8.20
2022-08-01T22:53:20.578Z,8.45
2022-08-01T22:58:11.785Z,8.23
2022-08-01T23:03:01.588Z,7.93
2022-08-01T23:07:52.932Z,8.32
2022-08-01T23:12:39.945Z,8.00
2022-08-01T23:17:29.576Z,8.10
2022-08-01T23:22:16.286Z,9.05
2022-08-01T23:27:22.860Z,8.63
2022-08-01T23:32:30.801Z,8.55
2022-08-01T23:37:17.114Z,7.70
2022-08-01T23:42:07.207Z,7.30
2022-08-01T23:46:52.559Z,7.90
2022-08-01T23:51:40.692Z,7.75
2022-08-01T23:56:26.882Z,8.05
